Home > Products > Valid Products > TAF

000
FTUS46 KEKA 011100 RRA
TAFUKI
TAF
KUKI 011145Z 0112/0212 00000KT P6SM SCT250
     FM012000 14007KT P6SM SCT250
     FM012300 24009KT P6SM SCT250
     FM020500 VRB03KT P6SM SCT250=



000
FTUS46 KEKA 011100 RRA
TAFCEC
TAF
KCEC 011145Z 0112/0212 VRB03KT 1/2SM FG VV002
     FM011700 24006KT 2SM BR BKN003
     FM012000 24008KT P6SM SCT005
     FM020300 17008KT 6SM BR SCT003
     FM020800 18004KT 4SM BR BKN003=



000
FTUS46 KEKA 011100 RRA
TAFACV
TAF
KACV 011145Z 0112/0212 00000KT 6SM BR OVC003
      TEMPO 0112/0115 4SM BR VV002
     FM011700 26005KT 6SM BR BKN003
     FM012000 29007KT P6SM SCT005
     FM020500 18003KT 6SM BR BKN003
     FM021000 15003KT 4SM BR OVC002=



000
FTUS46 KEKA 010500
TAFCEC
TAF
KCEC 010539Z 0106/0206 17008KT 2SM BR BKN004
     FM010800 VRB04KT 1/2SM FG VV002
     FM011700 18004KT 2SM BR OVC003
     FM012000 17008KT P6SM BKN003=



000
FTUS46 KEKA 010500
TAFACV
TAF
KACV 010539Z 0106/0206 VRB03KT 5SM BR BKN004
     FM011000 00000KT 1/2SM FG VV002
     FM011600 26005KT 3SM BR OVC003
     FM012000 29006KT P6SM SCT003=



000
FTUS46 KEKA 010500
TAFUKI
TAF
KUKI 010539Z 0106/0206 00000KT P6SM SKC
     FM012000 24010KT P6SM SKC
     FM020200 35004KT P6SM SKC=



000
FTUS46 KEKA 010200 AAA
TAFACV
TAF AMD
KACV 010250Z 0103/0124 28006KT P6SM SCT004
     FM010500 VRB03KT 5SM BR BKN004
     FM011000 00000KT 1/2SM FG VV002
     FM011600 26005KT 3SM BR OVC003
     FM012000 29006KT P6SM SCT003=



000
FTUS46 KEKA 312300
TAFCEC
TAF
KCEC 312339Z 0100/0124 17008KT 2SM BR BKN004
     FM010800 VRB04KT 1/2SM FG VV002
     FM011700 18004KT 2SM BR OVC003
     FM012000 17008KT P6SM OVC003=



000
FTUS46 KEKA 312300
TAFACV
TAF
KACV 312339Z 0100/0124 28006KT P6SM SCT004
      TEMPO 0101/0103 BKN004
     FM010300 VRB03KT 5SM BR OVC004
     FM011000 00000KT 1/2SM FG VV002
     FM011600 26005KT 3SM BR OVC003
     FM012000 29006KT P6SM SCT003=



000
FTUS46 KEKA 312300
TAFUKI
TAF
KUKI 312339Z 0100/0124 30009KT P6SM SKC
     FM010200 VRB05KT P6SM SKC
     FM010500 00000KT P6SM SKC
     FM012000 24010KT P6SM SKC=



000
FTUS46 KEKA 312200 AAB
TAFACV
TAF AMD
KACV 312242Z 3123/0118 28006KT P6SM SCT004
      TEMPO 0100/0103 BKN004
     FM010300 VRB03KT 5SM BR OVC004
     FM010800 00000KT 1/2SM FG VV002
     FM011700 26005KT 3SM BR OVC003=



000
FTUS46 KEKA 312100 AAA
TAFACV
TAF AMD
KACV 312113Z 3121/0118 28006KT P6SM BKN004
      TEMPO 3121/0101 SCT004
     FM010300 VRB03KT 5SM BR OVC004
     FM010800 00000KT 1/2SM FG VV002
     FM011700 26005KT 3SM BR OVC003=



000
FTUS46 KEKA 311700
TAFUKI
TAF
KUKI 311721Z 3118/0118 VRB03KT P6SM FEW250
     FM312200 29009KT P6SM SKC
     FM010200 VRB05KT P6SM SKC
     FM010500 00000KT P6SM SKC=



000
FTUS46 KEKA 311700
TAFACV
TAF
KACV 311721Z 3118/0118 26005KT 3SM BR OVC002
     FM311900 26006KT 4SM BR OVC005
     FM312100 28006KT P6SM BKN007
      TEMPO 3122/0101 SCT007
     FM010300 VRB03KT 5SM BR OVC004
     FM010800 00000KT 1/2SM FG VV002
     FM011700 26005KT 3SM BR OVC003=



000
FTUS46 KEKA 311700
TAFCEC
TAF
KCEC 311721Z 3118/0118 18007KT 3SM BR OVC003
     FM312100 24008KT P6SM BKN005
      TEMPO 3122/0101 SCT005
     FM010100 22006KT 5SM BR BKN003
     FM010400 18006KT 2SM BR OVC003
     FM010800 VRB04KT 1/2SM FG VV002
     FM011700 21004KT 2SM BR OVC003=



000
FTUS46 KEKA 311300 CCA
TAFACV
TAF COR
KACV 311326Z 3113/0112 00000KT 1/2SM FG VV002
     FM311500 VRB03KT 1SM BR VV002
     FM311700 24005KT 3SM BR OVC003
     FM311900 26006KT 4SM BR OVC006
     FM312100 28006KT P6SM BKN008
     FM010300 VRB03KT 5SM BR OVC004=



000
FTUS46 KEKA 311300 AAA
TAFACV
TAF AMD
KACV 311325Z 3113/0112 00000KT 1/4SM FG VV002
     FM311500 VRB03KT 1SM BR VV002
     FM311700 24005KT 3SM BR OVC003
     FM311900 26006KT 4SM BR OVC006
     FM312100 28006KT P6SM BKN008
     FM010300 VRB03KT 5SM BR OVC004=



000
FTUS46 KEKA 311100
TAFCEC
TAF
KCEC 311133Z 3112/0112 00000KT 3/4SM BR VV002
     FM311800 22006KT 3SM BR BKN005
     FM312100 24008KT P6SM BKN005
     FM010100 23006KT 5SM BR OVC003
     FM010400 18006KT 2SM BR OVC003=



000
FTUS46 KEKA 311100
TAFACV
TAF
KACV 311133Z 3112/0112 00000KT 3/4SM BR VV002
     FM311300 VRB02KT 1/2SM FG VV002
     FM311600 23005KT 3SM BR OVC003
     FM311900 26006KT 4SM BR OVC006
     FM312100 28006KT P6SM BKN008
     FM010300 VRB03KT 5SM BR OVC004=



000
FTUS46 KEKA 311100
TAFUKI
TAF
KUKI 311133Z 3112/0112 00000KT P6SM FEW250
     FM311900 VRB03KT P6SM SKC
     FM312200 28006KT P6SM SKC
     FM010200 VRB05KT P6SM SKC
     FM010500 00000KT P6SM SKC=



000
FTUS46 KEKA 311100 AAB
TAFACV
TAF AMD
KACV 311101Z 3111/0106 00000KT 1SM BR VV002
     FM311200 VRB02KT 1/4SM FG VV002
     FM311800 23003KT 2SM BR OVC004
     FM312100 26007KT P6SM BKN007=



000
FTUS46 KEKA 310900 AAA
TAFACV
TAF AMD
KACV 310902Z 3109/0106 14005KT 5SM BR OVC002
     FM311100 VRB03KT 3SM BR OVC003
     FM311200 VRB02KT 1/4SM FG OVC001
     FM311800 23003KT 2SM BR OVC004
     FM312100 26007KT P6SM BKN007=



000
FTUS46 KEKA 310900 AAA
TAFCEC
TAF AMD
KCEC 310900Z 3109/0106 00000KT 1/2SM FG VV002
     FM311800 24007KT 3SM BR BKN003
     FM312100 24009KT P6SM SCT003 SCT250
     FM010000 30009KT P6SM BKN003=



000
FTUS46 KEKA 310500
TAFUKI
TAF
KUKI 310538Z 3106/0106 VRB03KT P6SM SCT200=



000
FTUS46 KEKA 310500
TAFACV
TAF
KACV 310538Z 3106/0106 14005KT 6SM BR OVC004
     FM310800 VRB03KT 3SM BR OVC003
     FM310900 VRB03KT 3/4SM BR OVC002
     FM311200 VRB02KT 1/4SM FG OVC001
     FM311800 23003KT 2SM BR OVC004
     FM312100 26007KT P6SM BKN007=



000
FTUS46 KEKA 310500
TAFCEC
TAF
KCEC 310538Z 3106/0106 13005KT 1/2SM FG OVC002
     FM310900 VRB03KT 1/2SM FG OVC001
     FM311800 24007KT 3SM BR BKN003
     FM312100 24009KT P6SM SCT003 SCT250
     FM010000 30009KT P6SM BKN003=



000
FTUS46 KEKA 310400 AAB
TAFACV
TAF AMD
KACV 310437Z 3105/3124 VRB05KT P6SM BKN006
      TEMPO 3105/3107 4SM BR
     FM310900 VRB03KT 2SM BR OVC003
     FM311200 VRB02KT 1/4SM FG OVC002
     FM311800 23003KT 2SM BR OVC004
     FM312100 26007KT P6SM BKN007=



000
FTUS46 KEKA 310100 AAA
TAFACV
TAF AMD
KACV 310107Z 3101/3124 32005KT 1SM BR OVC002
      TEMPO 3102/3106 1/2SM FG
     FM310600 VRB03KT 1SM BR OVC002
     FM310900 VRB03KT 2SM BR OVC003
     FM311200 VRB02KT 1/4SM FG OVC002
     FM311800 23003KT 2SM BR OVC004=



000
FTUS46 KEKA 302300 RRA
TAFACV
TAF
KACV 302342Z 3100/3124 32009KT P6SM SCT003
     FM310030 32006KT 6SM BR BKN003
      TEMPO 3101/3103 SCT003
     FM310500 VRB03KT 1 1/2SM BR OVC006=



000
FTUS46 KEKA 302300 RRA
TAFUKI
TAF
KUKI 302342Z 3100/3124 27011G17KT P6SM FEW050 SCT200
     FM310200 32006KT P6SM SCT200=



000
FTUS46 KEKA 302300 RRA
TAFCEC
TAF
KCEC 302342Z 3100/3124 19009KT 5SM BR OVC003
     FM310300 17006KT 2SM BR OVC002
      TEMPO 3103/3106 3/4SM BR OVC002
     FM310600 17003KT 3/4SM BR OVC002
     FM311800 24007KT 6SM BR BKN003=



000
FTUS46 KEKA 302100 AAA
TAFCEC
TAF AMD
KCEC 302137Z 3022/3118 19007KT 2SM BR BKN004
     FM310100 16007KT 1 1/2SM BR OVC002
     FM310600 17003KT 3/4SM BR OVC002=



000
FTUS46 KEKA 302100 AAA
TAFACV
TAF AMD
KACV 302134Z 3022/3118 31005KT P6SM SCT004
      TEMPO 3022/3024 1 1/2SM BR BKN002
     FM310000 16003KT 3SM BR OVC002
     FM310300 VRB03KT 1 1/2SM BR OVC002=



000
FTUS46 KEKA 301900 CCA
TAFCEC
TAF COR
KCEC 301934Z 3018/3118 32005KT 2SM BR OVC003
     FM302100 27005KT P6SM BKN004
     FM310200 VRB03KT 2SM BR OVC004
     FM310700 17003KT 3/4SM BR OVC002=



000
FTUS46 KEKA 301700
TAFACV
TAF
KACV 301735Z 3018/3118 26004KT 6SM BR OVC004
     FM302100 28006KT P6SM BKN005
     FM310200 16003KT 2SM BR OVC004
     FM310700 VRB03KT 3/4SM BR OVC002=



000
FTUS46 KEKA 301700
TAFUKI
TAF
KUKI 301735Z 3018/3118 00000KT P6SM SKC
     FM302300 25008KT P6SM SCT200
     FM310200 VRB05KT P6SM SCT150=



000
FTUS46 KEKA 301700
TAFCEC
TAF
KCEC 301735Z 3018/3118 32005KT 4SM BR OVC003
     FM302100 27005KT P6SM BKN005
     FM310200 VRB03KT 2SM BR OVC004
     FM310700 17003KT 3/4SM BR OVC002=



000
FTUS46 KEKA 301200 AAA
TAFACV
TAF AMD
KACV 301215Z 3012/3112 VRB03KT 2SM BR OVC002
     FM301500 VRB03KT 4SM BR OVC002
     FM301800 25006KT 5SM BR BKN006
     FM302100 28006KT P6SM BKN006
     FM310200 26004KT 6SM BR OVC005=



000
FTUS46 KEKA 301100
TAFACV
TAF
KACV 301122Z 3012/3112 VRB06KT P6SM OVC003
     FM301500 VRB03KT 4SM BR OVC003
     FM301800 25006KT P6SM BKN006
     FM302100 28006KT P6SM BKN006
     FM310200 26004KT 6SM BR OVC005=



000
FTUS46 KEKA 301100
TAFUKI
TAF
KUKI 301122Z 3012/3112 VRB03KT P6SM FEW050
     FM301800 VRB04KT P6SM SCT200
     FM302300 25008KT P6SM SCT200
     FM310200 VRB05KT P6SM SCT200=



000
FTUS46 KEKA 301100
TAFCEC
TAF
KCEC 301122Z 3012/3112 VRB03KT 3SM BR OVC003
      TEMPO 3012/3014 1SM BR OVC002
     FM301600 25006KT 4SM BR OVC004
     FM302000 26005KT P6SM OVC006
     FM310200 VRB06KT 5SM BR OVC004=



000
FTUS46 KEKA 301000 AAA
TAFCEC
TAF AMD
KCEC 301009Z 3010/3106 16007KT 2SM BR OVC003
      TEMPO 3011/3013 1/2SM FG VV002
     FM301300 VRB03KT 1SM BR OVC002
     FM301600 20003KT 1SM BR OVC002
     FM301900 26005KT 3SM BR OVC004
     FM302100 26008KT P6SM BKN005=



000
FTUS46 KEKA 301000 CCB
TAFACV
TAF COR
KACV 301007Z 3008/3106 18006KT P6SM OVC004
     FM301400 VRB03KT 2SM BR OVC003
     FM301500 VRB03KT 2SM BR OVC003
     FM302000 28006KT 6SM BR OVC006=



000
FTUS46 KEKA 300900 CCA
TAFACV
TAF COR
KACV 300901Z 3008/3106 18006KT P6SM OVC003
      TEMPO 3010/3014 VRB03KT 2SM BR OVC002
     FM301400 VRB03KT 1/2SM FG OVC002
     FM301500 VRB03KT 2SM BR OVC003
     FM302000 28006KT 6SM BR OVC006=



000
FTUS46 KEKA 300800 AAA
TAFACV
TAF AMD
KACV 300806Z 3008/3106 18006KT P6SM OVC002
      TEMPO 3008/3012 VRB03KT 2SM BR VV002
     FM301200 VRB03KT 1/4SM FG OVC002
     FM301500 VRB03KT 2SM BR OVC003
     FM302000 28006KT 6SM BR OVC006=



000
FTUS46 KEKA 300500
TAFCEC
TAF
KCEC 300539Z 3006/3106 16007KT 3/4SM BR OVC002
      TEMPO 3010/3012 1/2SM FG
     FM301200 VRB03KT 1/4SM FG OVC001
     FM301600 20003KT 1SM BR OVC002
     FM301900 26005KT 3SM BR OVC004
     FM302100 26008KT P6SM BKN005=



000
FTUS46 KEKA 300500
TAFACV
TAF
KACV 300539Z 3006/3106 15005KT 3/4SM BR OVC002
      TEMPO 3006/3009 2SM BR
     FM300900 16002KT 3/4SM BR OVC002
     FM301200 VRB03KT 1/4SM FG OVC002
     FM301500 VRB03KT 2SM BR OVC003
     FM302000 28006KT 6SM BR OVC006=



000
FTUS46 KEKA 300500
TAFUKI
TAF
KUKI 300539Z 3006/3106 VRB03KT P6SM FEW150
     FM301730 12005KT P6SM SCT200
     FM302200 27010KT P6SM FEW040 SCT200=



000
FTUS46 KEKA 300200 AAA
TAFCEC
TAF AMD
KCEC 300209Z 3002/3024 17008KT 3/4SM BR OVC002
      TEMPO 3002/3006 1/2SM FG
     FM300600 VRB04KT 1/4SM FG OVC002=



000
FTUS46 KEKA 300200 AAA
TAFACV
TAF AMD
KACV 300207Z 3002/3024 30006KT 1/2SM FG OVC002
      TEMPO 3002/3004 1 1/2SM BR
     FM300600 18003KT 1SM BR OVC002
     FM301200 VRB02KT 1/4SM FG OVC002
     FM301900 29006KT P6SM OVC007=



000
FTUS46 KEKA 292300
TAFUKI
TAF
KUKI 292340Z 3000/3024 26012G17KT P6SM FEW060 SCT180
     FM300200 VRB05KT P6SM SCT180=



000
FTUS46 KEKA 292300
TAFCEC
TAF
KCEC 292340Z 3000/3024 17009KT P6SM BKN003 OVC006
      TEMPO 3001/3003 5SM BR BKN006
     FM300300 18007KT 1 1/2SM BR OVC002
     FM300600 VRB04KT 3/4SM BR OVC002=



000
FTUS46 KEKA 292300
TAFACV
TAF
KACV 292340Z 3000/3024 30008KT P6SM SCT006
      TEMPO 3001/3003 33005KT 5SM BR OVC005
     FM300300 27004KT 3SM BR OVC004
     FM300600 18003KT 1SM BR OVC003
     FM301200 VRB02KT 1/2SM FG OVC002
     FM301900 29006KT P6SM OVC007=



000
FTUS46 KEKA 292300 AAA
TAFACV
TAF AMD
KACV 292316Z 2923/3018 30005KT P6SM SCT006
      TEMPO 2923/3001 33005KT 5SM BR OVC004
     FM300100 VRB03KT 6SM BR OVC002=



000
FTUS46 KEKA 291700
TAFUKI
TAF
KUKI 291735Z 2918/3018 00000KT P6SM SKC
     FM292000 15006KT P6SM SCT060
     FM300000 30008KT P6SM SCT060
     FM300300 VRB03KT P6SM SKC=



000
FTUS46 KEKA 291700
TAFCEC
TAF
KCEC 291735Z 2918/3018 20003KT 3SM BR OVC002
     FM292100 21008KT 5SM BR OVC003
     FM300000 18007KT 1 1/2SM BR OVC002
     FM300800 VRB04KT 1 1/2SM BR OVC002=



000
FTUS46 KEKA 291700
TAFACV
TAF
KACV 291735Z 2918/3018 33005KT 5SM BR OVC002
     FM292000 33008KT P6SM BKN005
     FM300100 VRB03KT 2SM BR OVC002=



000
FTUS46 KEKA 291500 AAA
TAFACV
TAF AMD
KACV 291508Z 2915/3012 10003KT 1 1/2SM BR OVC002
     FM291800 32004KT 2SM BR OVC003
     FM292000 26006KT P6SM BKN006
     FM300400 VRB03KT 4SM BR OVC004=



    US Dept of Commerce
    National Oceanic and Atmospheric Administration
    National Weather Service
    1325 East West Highway
    Silver Spring, MD 20910
    Page Author: NWS Internet Services Team
Disclaimer
Information Quality
Credits
Glossary
Privacy Policy
Freedom of Information Act (FOIA)
About Us
Career Opportunities